Пляж

Карта отелей и гостиниц, располагающихся рядом с аэропортом Пляж :

Пляж
Воронеж
Воронежская область 51° 40' 26.6412" N, 39° 14' 18.78" E
Код аэродрома ИКАО
HA43
Код аэродрома RU
ХА43
Координаты
N51.67407° E039.23855°
Превышение над уровнем моря
94
Основная полоса
14/32
Курс магнитный
141,3/321,3
Длина основной ВПП
50
Ширина основной ВПП
15
Покрытие основной ВПП
Твёрдое
Освещение ВПП
Постоянное
Тип: 
Вертодром
Класс аэродрома: 
Принадлежность: 
АОН
Статус: 
Действующий
Сайт: 
http://aerosouz-vrn.ru/
E-mail аэродрома: 
info@aerosouz-vrn.ru
Страна: 
Россия
Регион: 
Воронежская область
Город: 
Воронеж
Дополнительная информация: 
Оператор: нет данных.

Найти трансфер

С помощью этой формы Вы можете найти трансфер из аэропорта Пляж в город, аэропорт или вокзал:

Карта места

Javascript is required to view this map.

Погода в аэропортах:

Авиационная погода в Брянске

Регион: 
Погода METAR: 
UUBP 171530Z AUTO 06004MPS 9000 -RA 07/07 Q1015 RMK QFE744/0992
Время наблюдения
2021-09-17T15:30:00Z
Температура C
7.0
Точка росы
7.0
Направление ветра
60
Скорость ветра (узлы)
8
Метео видимость
5.59
Явления погоды
-RA
Условия полета
Аэропорт подробнее: 

Авиационная погода в Ханты-Мансийске

Регион: 
Погода METAR: 
USHH 171530Z 30003MPS 240V330 9999 -RA BKN014 05/05 Q0991 R06/290050 TEMPO 3100 -RA BKN004
Время наблюдения
2021-09-17T15:30:00Z
Температура C
5.0
Точка росы
5.0
Направление ветра
300
Скорость ветра (узлы)
6
Метео видимость
6.21
Явления погоды
-RA
Условия полета
MVFR
Аэропорт подробнее: 

Авиационная погода в Тбилиси

Регион: 
Погода METAR: 
UGTB 171530Z 33017KT 9999 -SHRA SCT055CB 18/15 Q1015 R31L/19//60 NOSIG
Время наблюдения
2021-09-17T15:30:00Z
Температура C
18.0
Точка росы
15.0
Направление ветра
330
Скорость ветра (узлы)
17
Метео видимость
6.21
Явления погоды
-SHRA
Условия полета
VFR

Авиационная погода в Емельяново

Регион: 
Погода METAR: 
UNKL 171530Z VRB01MPS 1400 1200W BR NSC 09/09 Q1007 R29/CLRD65 NOSIG RMK QFE730
Время наблюдения
2021-09-17T15:30:00Z
Температура C
9.0
Точка росы
9.0
Направление ветра
0
Скорость ветра (узлы)
2
Метео видимость
0.87
Явления погоды
BR
Условия полета
LIFR
Аэропорт подробнее: